Time;durP1;ratioP1;P1;durP2;ratioP2;P2;SDS_P1;SDS_P2;PMS_P1;PMS_P2;Temp;Humidity;BMP_temperature;BMP_pressure;BME280_temperature;BME280_humidity;BME280_pressure;Samples;Min_cycle;Max_cycle;Signal;HPM_P1;HPM_P2
2022/07/25 00:04:25;;;;;;;0.60;0.40;;;;;;;19.72;100.00;101108.81;10511996;28;20063;-80
2022/07/25 00:09:27;;;;;;;1.73;0.70;;;;;;;19.53;100.00;101099.38;10487133;28;20112;-80
2022/07/25 00:14:29;;;;;;;0.90;0.52;;;;;;;19.56;100.00;101081.91;10518209;28;20510;-80
2022/07/25 00:19:31;;;;;;;0.30;0.30;;;;;;;19.57;100.00;101075.81;10506500;28;20052;-80
2022/07/25 00:24:33;;;;;;;1.08;0.57;;;;;;;19.32;100.00;101083.84;10498359;28;20430;-80
2022/07/25 00:29:35;;;;;;;0.63;0.10;;;;;;;19.20;100.00;101073.50;10510840;28;20052;-80
2022/07/25 00:34:37;;;;;;;1.08;0.93;;;;;;;19.27;100.00;101064.75;10487068;28;20055;-80
2022/07/25 00:39:39;;;;;;;0.88;0.30;;;;;;;19.29;100.00;101073.44;10492964;28;20047;-80
2022/07/25 00:44:40;;;;;;;0.32;0.30;;;;;;;19.26;100.00;101067.38;10488140;28;20491;-80
2022/07/25 00:49:42;;;;;;;1.05;0.45;;;;;;;19.24;100.00;101061.28;10487688;28;20036;-80
2022/07/25 00:54:44;;;;;;;0.10;0.10;;;;;;;19.03;100.00;101050.97;10507088;28;20374;-80
2022/07/25 00:59:45;;;;;;;0.52;0.30;;;;;;;18.86;100.00;101052.81;10496966;28;20028;-80
2022/07/25 01:04:47;;;;;;;0.13;0.13;;;;;;;18.82;100.00;101046.75;10494305;28;20040;-80
2022/07/25 01:09:49;;;;;;;1.45;0.93;;;;;;;18.61;100.00;101052.94;10488574;28;20045;-80
2022/07/25 01:14:51;;;;;;;1.00;0.45;;;;;;;18.75;100.00;101041.56;10494569;28;20055;-80
2022/07/25 01:19:52;;;;;;;0.75;0.50;;;;;;;18.85;100.00;101027.59;10494616;28;20040;-80
2022/07/25 01:24:54;;;;;;;0.65;0.40;;;;;;;18.82;100.00;101030.19;10488702;28;20072;-79
2022/07/25 01:29:56;;;;;;;0.70;0.60;;;;;;;18.60;100.00;101025.13;10493777;28;20051;-80
2022/07/25 01:34:57;;;;;;;0.65;0.50;;;;;;;18.55;100.00;101021.66;10481673;28;20083;-80
2022/07/25 01:39:59;;;;;;;2.42;1.48;;;;;;;18.68;100.00;101018.13;10498555;28;20051;-79
2022/07/25 01:45:02;;;;;;;3.17;1.40;;;;;;;18.78;100.00;100999.78;10503428;28;20055;-80
2022/07/25 01:50:04;;;;;;;1.23;0.80;;;;;;;19.18;100.00;100981.22;10488218;28;20045;-79
2022/07/25 01:55:07;;;;;;;2.85;1.48;;;;;;;19.44;100.00;100969.69;10494008;28;20044;-80
2022/07/25 02:00:12;;;;;;;2.30;1.58;;;;;;;19.68;100.00;100965.94;10488521;28;20052;-80
2022/07/25 02:05:14;;;;;;;2.50;1.05;;;;;;;19.91;100.00;100960.50;10503788;28;20472;-80
2022/07/25 02:10:16;;;;;;;3.33;1.50;;;;;;;19.91;100.00;100952.66;10488729;28;20071;-79
2022/07/25 02:15:17;;;;;;;2.00;1.20;;;;;;;20.05;100.00;100949.00;10484433;28;20040;-80
2022/07/25 02:20:19;;;;;;;2.97;2.03;;;;;;;20.05;100.00;100946.38;10514516;28;20395;-80
2022/07/25 02:25:21;;;;;;;2.60;1.55;;;;;;;20.13;100.00;100939.31;10496578;28;20075;-80
2022/07/25 02:30:23;;;;;;;1.20;0.82;;;;;;;20.15;100.00;100934.06;10501056;28;20055;-80
2022/07/25 02:35:25;;;;;;;1.45;0.93;;;;;;;20.21;100.00;100928.72;10491062;28;20082;-80
2022/07/25 02:40:26;;;;;;;4.10;1.27;;;;;;;20.26;100.00;100917.31;10498390;28;20488;-80
2022/07/25 02:45:28;;;;;;;1.63;1.20;;;;;;;20.29;100.00;100906.78;10506937;28;20446;-80
2022/07/25 02:50:29;;;;;;;3.00;1.30;;;;;;;20.41;100.00;100894.44;10513215;28;20048;-80
2022/07/25 02:55:31;;;;;;;2.22;1.15;;;;;;;20.27;100.00;100894.63;10505925;28;20045;-79
2022/07/25 03:00:33;;;;;;;1.52;1.13;;;;;;;20.25;100.00;100884.19;10495418;28;20047;-80
2022/07/25 03:05:34;;;;;;;1.98;1.67;;;;;;;20.36;100.00;100886.66;10480018;28;20044;-80
2022/07/25 03:10:36;;;;;;;2.63;1.67;;;;;;;20.29;100.00;100885.88;10510188;28;20518;-80
2022/07/25 03:15:38;;;;;;;2.90;1.50;;;;;;;20.32;100.00;100879.75;10484532;28;20074;-80
2022/07/25 03:20:39;;;;;;;1.08;0.85;;;;;;;20.28;100.00;100873.69;10513347;28;20449;-80
2022/07/25 03:25:41;;;;;;;1.08;0.98;;;;;;;20.28;100.00;100870.19;10505565;28;20094;-80
2022/07/25 03:30:43;;;;;;;2.38;1.60;;;;;;;20.28;100.00;100860.63;10496704;28;20041;-80
2022/07/25 03:35:45;;;;;;;1.77;1.33;;;;;;;20.35;100.00;100855.28;10519828;28;20063;-80
2022/07/25 03:40:46;;;;;;;2.38;1.92;;;;;;;20.25;100.00;100854.56;10472124;28;20450;-79
2022/07/25 03:45:48;;;;;;;3.05;1.75;;;;;;;20.09;100.00;100861.75;10505147;28;20041;-80
2022/07/25 03:50:49;;;;;;;3.50;1.33;;;;;;;20.15;100.00;100866.91;10504641;28;20055;-80
2022/07/25 03:55:51;;;;;;;6.57;2.70;;;;;;;20.08;100.00;100865.25;10498274;28;20135;-79
2022/07/25 04:00:53;;;;;;;1.55;0.95;;;;;;;20.01;100.00;100847.94;10500133;28;20048;-80
2022/07/25 04:05:55;;;;;;;3.00;1.15;;;;;;;20.16;100.00;100834.63;10488753;28;20048;-79
2022/07/25 04:10:56;;;;;;;2.30;1.40;;;;;;;20.21;100.00;100834.56;10492475;28;20043;-79
2022/07/25 04:15:58;;;;;;;1.90;1.02;;;;;;;20.18;100.00;100832.88;10479974;28;20056;-79
2022/07/25 04:21:00;;;;;;;1.58;1.13;;;;;;;20.12;100.00;100846.03;10497771;28;20044;-80
2022/07/25 04:26:02;;;;;;;2.15;1.17;;;;;;;20.14;100.00;100841.66;10492472;28;20052;-79
2022/07/25 04:31:04;;;;;;;2.13;1.27;;;;;;;20.22;100.00;100831.06;10492555;28;20059;-80
2022/07/25 04:36:06;;;;;;;5.45;2.38;;;;;;;20.43;100.00;100822.03;10492776;28;20053;-80
2022/07/25 04:41:08;;;;;;;3.80;1.25;;;;;;;20.55;100.00;100824.41;10480398;28;20581;-80
2022/07/25 04:46:10;;;;;;;0.95;0.77;;;;;;;20.75;100.00;100810.16;10492926;28;20059;-80
2022/07/25 04:51:12;;;;;;;2.33;1.50;;;;;;;20.93;100.00;100803.69;10496084;28;20053;-80
2022/07/25 04:56:13;;;;;;;1.52;0.95;;;;;;;21.02;100.00;100800.06;10496491;28;20044;-80
2022/07/25 05:01:15;;;;;;;1.17;0.95;;;;;;;21.02;100.00;100794.81;10492189;28;20040;-79
2022/07/25 05:06:18;;;;;;;1.85;0.70;;;;;;;20.97;100.00;100783.56;10475735;28;20050;-80
2022/07/25 05:11:20;;;;;;;1.23;0.80;;;;;;;21.11;100.00;100786.78;10499433;28;20072;-80
2022/07/25 05:16:22;;;;;;;1.58;1.27;;;;;;;21.22;100.00;100789.22;10493347;28;20118;-79
2022/07/25 05:21:23;;;;;;;1.73;1.23;;;;;;;21.22;100.00;100779.56;10480840;28;20116;-79
2022/07/25 05:26:25;;;;;;;1.92;0.55;;;;;;;21.53;100.00;100778.94;10495414;28;20106;-79
2022/07/25 05:31:26;;;;;;;1.65;1.20;;;;;;;21.53;100.00;100780.66;10494417;28;20055;-79
2022/07/25 05:36:28;;;;;;;2.65;0.85;;;;;;;21.67;100.00;100776.03;10488381;28;20105;-80
2022/07/25 05:41:30;;;;;;;0.77;0.47;;;;;;;21.88;100.00;100773.81;10494685;28;20488;-79
2022/07/25 05:46:32;;;;;;;1.75;1.25;;;;;;;21.79;100.00;100769.63;10472812;28;20048;-79
2022/07/25 05:51:34;;;;;;;4.63;1.13;;;;;;;21.95;100.00;100758.78;10488894;28;20032;-79
2022/07/25 05:56:36;;;;;;;1.38;0.90;;;;;;;22.13;100.00;100753.13;10492163;28;20094;-79
2022/07/25 06:01:37;;;;;;;1.27;0.90;;;;;;;22.41;100.00;100764.72;10493127;28;20040;-79
2022/07/25 06:06:39;;;;;;;1.65;1.45;;;;;;;22.50;100.00;100757.47;10504309;28;20044;-79
2022/07/25 06:11:41;;;;;;;2.13;0.95;;;;;;;22.69;100.00;100770.09;10484544;28;20131;-80
2022/07/25 06:17:00;;;;;;;0.40;0.40;;;;;;;22.61;100.00;100758.91;10488093;28;20044;-79
2022/07/25 06:22:02;;;;;;;1.45;1.05;;;;;;;22.70;100.00;100758.69;10493189;28;20491;-80
2022/07/25 06:27:05;;;;;;;2.17;0.95;;;;;;;22.79;100.00;100750.56;10493016;28;20049;-79
2022/07/25 06:32:07;;;;;;;1.42;1.00;;;;;;;23.04;100.00;100756.88;10497399;28;20048;-79
2022/07/25 06:37:08;;;;;;;1.30;1.05;;;;;;;23.23;100.00;100752.00;10492377;28;20037;-78
2022/07/25 06:42:10;;;;;;;0.63;0.50;;;;;;;23.17;100.00;100741.63;10488378;28;20055;-79
2022/07/25 06:47:12;;;;;;;3.92;0.98;;;;;;;23.36;100.00;100752.50;10492619;28;20462;-82
2022/07/25 06:52:14;;;;;;;0.75;0.50;;;;;;;23.34;100.00;100739.41;10482726;28;20086;-81
2022/07/25 06:57:16;;;;;;;1.27;1.13;;;;;;;23.34;100.00;100754.28;10491489;28;20044;-80
2022/07/25 07:02:18;;;;;;;1.83;1.27;;;;;;;23.47;100.00;100750.38;10491560;28;20048;-80
2022/07/25 07:07:19;;;;;;;1.00;0.77;;;;;;;24.26;100.00;100745.28;10492291;28;20139;-81
2022/07/25 07:12:21;;;;;;;1.42;1.17;;;;;;;24.66;100.00;100733.41;10491864;28;20041;-81
2022/07/25 07:17:22;;;;;;;1.58;1.25;;;;;;;24.46;100.00;100741.13;10488887;28;20075;-81
2022/07/25 07:22:24;;;;;;;1.30;0.60;;;;;;;24.31;100.00;100721.44;10481660;28;20036;-81
2022/07/25 07:27:52;;;;;;;0.50;0.50;;;;;;;24.57;100.00;100733.69;10478179;28;20040;-81
2022/07/25 07:32:54;;;;;;;0.30;0.30;;;;;;;24.67;100.00;100740.38;10499928;28;20407;-82
2022/07/25 07:37:56;;;;;;;1.25;0.95;;;;;;;24.55;97.97;100740.78;10496698;28;20036;-82
2022/07/25 07:43:01;;;;;;;4.53;1.38;;;;;;;25.18;94.48;100733.22;10493194;28;20416;-82
2022/07/25 07:48:02;;;;;;;0.47;0.30;;;;;;;25.37;94.81;100732.53;10496784;28;20055;-82
2022/07/25 07:53:05;;;;;;;2.40;0.85;;;;;;;25.56;92.73;100713.38;10492689;28;20506;-81
2022/07/25 07:58:07;;;;;;;2.60;1.27;;;;;;;25.47;95.19;100719.88;10493142;28;20483;-81
2022/07/25 08:03:09;;;;;;;0.32;0.30;;;;;;;25.31;99.13;100716.97;10489044;28;20052;-81
2022/07/25 08:08:13;;;;;;;1.48;0.70;;;;;;;25.74;92.25;100733.75;10502731;28;20064;-82
2022/07/25 08:13:23;;;;;;;1.02;0.85;;;;;;;26.32;89.00;100740.19;10499498;28;20064;-82
2022/07/25 08:18:26;;;;;;;3.92;1.58;;;;;;;25.71;87.69;100735.66;10491507;28;20048;-81
2022/07/25 08:23:28;;;;;;;0.50;0.47;;;;;;;25.74;87.10;100727.59;10475366;28;20048;-82
2022/07/25 08:28:30;;;;;;;0.70;0.40;;;;;;;25.81;89.47;100739.63;10496553;28;20044;-81
2022/07/25 08:33:31;;;;;;;0.98;0.73;;;;;;;25.32;82.83;100743.25;10485565;28;20198;-81
2022/07/25 08:38:34;;;;;;;1.88;1.15;;;;;;;25.85;84.43;100741.22;10471869;28;20364;-81
2022/07/25 08:43:36;;;;;;;0.80;0.60;;;;;;;26.18;86.15;100737.28;10475408;28;20041;-81
2022/07/25 08:48:39;;;;;;;1.25;0.80;;;;;;;26.31;84.24;100746.41;10479823;28;20051;-81
2022/07/25 08:53:41;;;;;;;1.30;1.02;;;;;;;25.84;87.87;100755.34;10481419;28;20040;-81
2022/07/25 08:58:49;;;;;;;0.80;0.60;;;;;;;26.46;84.04;100739.59;10489544;28;20060;-81
2022/07/25 09:03:51;;;;;;;2.08;0.52;;;;;;;26.64;82.57;100739.72;10487336;28;20041;-80
2022/07/25 09:08:54;;;;;;;0.70;0.40;;;;;;;26.70;78.70;100739.44;10480913;28;20040;-81
2022/07/25 09:14:00;;;;;;;1.20;0.88;;;;;;;27.40;72.32;100742.47;10481721;28;20060;-81
2022/07/25 09:19:22;;;;;;;0.38;0.35;;;;;;;27.42;87.41;100743.28;10469066;28;20111;-81
2022/07/25 09:24:23;;;;;;;1.38;0.50;;;;;;;27.83;78.00;100737.75;10483922;28;20454;-81
2022/07/25 09:29:31;;;;;;;0.70;0.30;;;;;;;27.59;70.00;100750.41;10484357;28;20040;-81
2022/07/25 09:34:38;;;;;;;0.47;0.47;;;;;;;27.62;68.34;100755.56;10474408;28;20504;-82
2022/07/25 09:39:58;;;;;;;0.73;0.50;;;;;;;27.49;70.65;100750.00;10482435;28;20510;-81
2022/07/25 09:45:12;;;;;;;0.40;0.32;;;;;;;27.75;67.15;100745.22;10474684;28;20060;-81
2022/07/25 09:50:14;;;;;;;0.30;0.20;;;;;;;27.70;68.33;100758.66;10481606;28;20040;-80
2022/07/25 09:55:18;;;;;;;0.20;0.20;;;;;;;27.80;61.93;100761.75;10479881;28;20040;-82
2022/07/25 10:00:24;;;;;;;0.85;0.65;;;;;;;28.25;65.28;100756.06;10487905;28;20442;-81
2022/07/25 10:05:39;;;;;;;0.43;0.20;;;;;;;28.43;57.99;100757.75;10493587;28;20044;-81
2022/07/25 10:10:41;;;;;;;0.28;0.08;;;;;;;27.02;58.15;100782.97;10474056;28;20037;-81
2022/07/25 10:15:49;;;;;;;0.10;0.10;;;;;;;27.40;60.76;100782.13;10469726;28;20048;-80
2022/07/25 10:20:53;;;;;;;;;;;;;;;27.49;63.37;100781.75;10462919;28;20033;-80
2022/07/25 10:26:14;;;;;;;0.00;0.00;;;;;;;27.28;66.44;100785.34;10464568;28;19921;-80
2022/07/25 10:31:20;;;;;;;0.00;0.00;;;;;;;27.22;64.05;100795.28;10464145;28;20458;-80
2022/07/25 10:36:24;;;;;;;0.00;0.00;;;;;;;27.26;68.32;100805.72;10478368;28;20484;-81
2022/07/25 10:41:27;;;;;;;0.32;0.10;;;;;;;27.36;68.86;100793.81;10479422;28;20037;-79
2022/07/25 10:46:33;;;;;;;0.00;0.00;;;;;;;27.83;68.44;100789.84;10471252;28;20463;-79
2022/07/25 10:51:36;;;;;;;0.25;0.13;;;;;;;27.21;69.65;100809.44;10475079;28;20048;-80
2022/07/25 10:56:57;;;;;;;0.20;0.00;;;;;;;27.74;69.22;100809.66;10471312;28;20041;-82
2022/07/25 11:02:00;;;;;;;0.22;0.15;;;;;;;27.20;70.27;100823.59;10468880;28;20044;-81
2022/07/25 11:07:10;;;;;;;0.00;0.00;;;;;;;27.83;72.82;100817.16;10470170;28;20518;-81
2022/07/25 11:12:15;;;;;;;0.00;0.00;;;;;;;27.94;70.37;100815.81;10481725;28;20040;-80
2022/07/25 11:17:22;;;;;;;0.03;0.03;;;;;;;26.85;69.45;100818.06;10496207;28;20072;-80
2022/07/25 11:22:25;;;;;;;0.20;0.20;;;;;;;26.84;67.86;100816.38;10496369;28;20036;-79
2022/07/25 11:27:29;;;;;;;0.47;0.30;;;;;;;27.14;70.49;100826.53;10496738;28;20052;-80
2022/07/25 11:32:41;;;;;;;0.68;0.28;;;;;;;27.29;70.46;100813.53;10495243;28;20032;-79
2022/07/25 11:38:02;;;;;;;0.00;0.00;;;;;;;26.95;74.04;100826.47;10478824;28;20048;-80
2022/07/25 11:43:06;;;;;;;0.10;0.00;;;;;;;26.81;74.48;100827.06;10493684;28;20044;-79
2022/07/25 11:48:10;;;;;;;0.28;0.20;;;;;;;26.38;70.24;100828.88;10497354;28;20051;-80
2022/07/25 11:53:14;;;;;;;0.47;0.47;;;;;;;25.95;68.55;100840.22;10511229;28;20056;-80
2022/07/25 11:58:16;;;;;;;1.48;0.20;;;;;;;25.84;68.71;100838.94;10493247;28;20048;-79
2022/07/25 12:03:22;;;;;;;0.82;0.65;;;;;;;25.57;74.66;100850.50;10496813;28;20052;-80
2022/07/25 12:08:24;;;;;;;0.30;0.17;;;;;;;25.20;70.79;100857.09;10509246;28;20044;-79
2022/07/25 12:13:28;;;;;;;0.00;0.00;;;;;;;25.30;74.08;100855.81;10503892;28;20491;-79
2022/07/25 12:18:29;;;;;;;0.00;0.00;;;;;;;25.70;79.27;100857.94;10490941;28;20033;-79
2022/07/25 12:23:32;;;;;;;0.63;0.52;;;;;;;25.55;84.76;100854.97;10492451;28;20087;-80
2022/07/25 12:28:33;;;;;;;0.00;0.00;;;;;;;25.42;80.57;100866.88;10486919;28;20446;-79
2022/07/25 12:33:35;;;;;;;0.10;0.10;;;;;;;25.21;78.73;100871.97;10495976;28;20037;-79
2022/07/25 12:38:38;;;;;;;0.22;0.13;;;;;;;25.07;80.97;100885.66;10486988;28;20561;-79
2022/07/25 12:43:40;;;;;;;3.35;0.30;;;;;;;25.90;79.91;100889.69;10489437;28;20549;-79
2022/07/25 12:48:43;;;;;;;1.10;0.20;;;;;;;25.74;76.79;100881.50;10498882;28;20060;-78
2022/07/25 12:53:45;;;;;;;0.10;0.10;;;;;;;26.63;74.01;100875.38;10516374;28;20044;-79
2022/07/25 12:58:49;;;;;;;0.00;0.00;;;;;;;26.97;76.24;100887.22;10538631;28;20048;-79
2022/07/25 13:03:50;;;;;;;0.10;0.10;;;;;;;26.41;74.23;100882.44;10494557;28;20389;-79
2022/07/25 13:08:52;;;;;;;0.20;0.20;;;;;;;25.89;79.92;100895.03;10520168;28;20040;-79
2022/07/25 13:13:54;;;;;;;0.20;0.17;;;;;;;26.31;79.48;100890.78;10527802;28;20052;-79
2022/07/25 13:18:56;;;;;;;0.35;0.25;;;;;;;25.70;77.74;100886.94;10512175;28;20438;-79
2022/07/25 13:23:57;;;;;;;0.10;0.10;;;;;;;25.08;79.48;100894.41;10514431;28;20048;-78
2022/07/25 13:28:59;;;;;;;0.45;0.22;;;;;;;25.45;77.41;100896.66;10505301;28;20490;-79
2022/07/25 13:34:01;;;;;;;0.32;0.10;;;;;;;24.99;80.38;100898.25;10538882;28;20076;-79
2022/07/25 13:39:04;;;;;;;0.30;0.30;;;;;;;24.80;82.22;100904.13;10505026;28;20040;-77
2022/07/25 13:44:06;;;;;;;0.30;0.25;;;;;;;24.50;83.97;100921.78;10525383;28;20410;-78
2022/07/25 13:49:09;;;;;;;0.25;0.25;;;;;;;24.03;86.97;100917.94;10537805;28;20040;-77
2022/07/25 13:54:12;;;;;;;0.40;0.40;;;;;;;23.62;93.63;100938.41;10510853;28;20047;-78
2022/07/25 13:59:13;;;;;;;0.30;0.30;;;;;;;23.31;92.27;100957.66;10489778;28;20300;-77
2022/07/25 14:04:22;;;;;;;0.35;0.13;;;;;;;23.33;89.52;100953.22;10483704;28;20045;-77
2022/07/25 14:09:23;;;;;;;1.25;0.20;;;;;;;23.23;91.54;100957.84;10499363;28;20585;-77
2022/07/25 14:14:25;;;;;;;0.10;0.03;;;;;;;23.19;94.06;100961.47;10498415;28;20047;-77
2022/07/25 14:19:27;;;;;;;0.10;0.10;;;;;;;23.25;94.30;100965.69;10499164;28;20063;-77
2022/07/25 14:24:28;;;;;;;0.10;0.10;;;;;;;23.83;90.46;100963.22;10493836;28;20044;-78
2022/07/25 14:29:30;;;;;;;0.40;0.20;;;;;;;24.35;88.82;100945.06;10461340;28;20041;-78
2022/07/25 14:34:32;;;;;;;1.13;0.68;;;;;;;24.89;90.49;100937.22;10496420;28;20396;-76
2022/07/25 14:39:34;;;;;;;1.65;0.70;;;;;;;24.79;87.27;100944.59;10472485;28;20044;-78
2022/07/25 14:44:36;;;;;;;0.20;0.20;;;;;;;24.78;85.02;100936.72;10487473;28;20122;-76
2022/07/25 14:49:39;;;;;;;0.50;0.40;;;;;;;24.15;84.06;100948.28;10489311;28;20048;-77
2022/07/25 14:54:41;;;;;;;2.05;0.45;;;;;;;24.16;88.31;100950.03;10483432;28;20654;-76
2022/07/25 14:59:43;;;;;;;1.50;0.90;;;;;;;24.32;84.93;100939.88;10478044;28;20050;-77
2022/07/25 15:04:44;;;;;;;0.20;0.20;;;;;;;23.91;83.07;100949.88;10490542;28;20041;-77
2022/07/25 15:09:46;;;;;;;0.00;0.00;;;;;;;24.48;83.90;100942.03;10489822;28;20480;-77
2022/07/25 15:14:48;;;;;;;0.13;0.13;;;;;;;24.81;78.38;100931.34;10489916;28;20520;-76
2022/07/25 15:19:49;;;;;;;0.20;0.20;;;;;;;24.50;82.75;100937.59;10489535;28;20053;-76
2022/07/25 15:24:51;;;;;;;0.55;0.50;;;;;;;24.30;83.14;100941.72;10490069;28;20434;-77
2022/07/25 15:30:12;;;;;;;1.88;0.57;;;;;;;23.96;82.08;100940.09;10485356;28;20036;-76
2022/07/25 15:35:14;;;;;;;0.95;0.20;;;;;;;23.69;81.88;100950.47;10489324;28;20098;-77
2022/07/25 15:40:16;;;;;;;1.52;0.40;;;;;;;23.77;84.42;100937.09;10488908;28;20514;-77
2022/07/25 15:45:19;;;;;;;0.10;0.10;;;;;;;24.00;82.72;100939.09;10489342;28;20044;-78
2022/07/25 15:50:38;;;;;;;1.17;0.40;;;;;;;24.76;76.47;100935.94;10485244;28;20483;-78
2022/07/25 15:55:41;;;;;;;0.43;0.10;;;;;;;24.22;76.77;100941.94;10486598;28;20040;-77
2022/07/25 16:00:43;;;;;;;0.30;0.20;;;;;;;24.85;71.85;100931.19;10488817;28;20573;-77
2022/07/25 16:05:44;;;;;;;0.10;0.03;;;;;;;24.58;75.02;100943.47;10508338;28;20491;-76
2022/07/25 16:10:47;;;;;;;0.05;0.05;;;;;;;24.36;73.33;100952.06;10496781;28;20064;-75
2022/07/25 16:15:48;;;;;;;0.22;0.22;;;;;;;24.89;71.42;100942.50;10488888;28;20566;-77
2022/07/25 16:20:50;;;;;;;1.40;0.50;;;;;;;24.32;72.49;100949.56;10465545;28;20591;-77
2022/07/25 16:25:52;;;;;;;0.38;0.20;;;;;;;24.76;71.78;100944.69;10496165;28;20569;-77
2022/07/25 16:30:54;;;;;;;0.30;0.30;;;;;;;24.54;68.79;100960.25;10488748;28;20407;-77
2022/07/25 16:35:56;;;;;;;0.05;0.05;;;;;;;24.39;68.65;100957.19;10488768;28;20052;-77
2022/07/25 16:40:58;;;;;;;0.03;0.03;;;;;;;24.49;64.48;100964.81;10488796;28;20051;-76
2022/07/25 16:46:00;;;;;;;0.32;0.22;;;;;;;24.22;65.09;100964.78;10495792;28;20147;-77
2022/07/25 16:51:03;;;;;;;1.55;0.28;;;;;;;24.35;67.81;100966.13;10504512;28;20373;-77
2022/07/25 16:56:04;;;;;;;1.60;0.52;;;;;;;24.33;65.05;100967.94;10488887;28;20052;-78
2022/07/25 17:01:06;;;;;;;0.00;0.00;;;;;;;24.43;65.92;100957.13;10477034;28;20044;-77
2022/07/25 17:06:08;;;;;;;0.20;0.20;;;;;;;23.97;65.83;100973.38;10478630;28;20413;-76
2022/07/25 17:11:10;;;;;;;0.10;0.10;;;;;;;23.73;67.71;100974.94;10476494;28;20040;-77
2022/07/25 17:16:11;;;;;;;0.10;0.10;;;;;;;23.79;69.91;100981.78;10482114;28;20075;-78
2022/07/25 17:21:15;;;;;;;0.73;0.20;;;;;;;24.05;67.65;100968.78;10479797;28;20032;-78
2022/07/25 17:26:18;;;;;;;0.10;0.10;;;;;;;23.49;67.82;100984.34;10486516;28;20045;-79
2022/07/25 17:31:20;;;;;;;6.80;0.63;;;;;;;23.80;66.69;100991.38;10489711;28;20056;-79
2022/07/25 17:36:21;;;;;;;0.08;0.08;;;;;;;23.76;67.50;100995.88;10492181;28;20484;-78
2022/07/25 17:41:23;;;;;;;0.15;0.10;;;;;;;23.47;67.32;101001.94;10472959;28;20049;-79
2022/07/25 17:46:25;;;;;;;0.63;0.20;;;;;;;23.15;70.10;101004.47;10492545;28;20496;-78
2022/07/25 17:51:27;;;;;;;0.00;0.00;;;;;;;23.01;71.47;101010.06;10488368;28;20033;-79
2022/07/25 17:56:28;;;;;;;0.00;0.00;;;;;;;22.84;72.53;101006.94;10489926;28;20041;-79
2022/07/25 18:01:30;;;;;;;0.08;0.00;;;;;;;22.79;72.60;101015.81;10488210;28;20037;-79
2022/07/25 18:06:32;;;;;;;0.00;0.00;;;;;;;22.66;73.41;101022.25;10490709;28;20075;-77
2022/07/25 18:11:33;;;;;;;0.00;0.00;;;;;;;22.68;77.16;101012.56;10473005;28;20055;-79
2022/07/25 18:16:35;;;;;;;0.00;0.00;;;;;;;22.61;72.45;101016.22;10482658;28;20062;-77
2022/07/25 18:21:37;;;;;;;0.00;0.00;;;;;;;22.55;73.68;101016.38;10490298;28;20478;-79
2022/07/25 18:26:39;;;;;;;0.00;0.00;;;;;;;22.53;75.51;101026.03;10490170;28;20094;-78
2022/07/25 18:31:41;;;;;;;0.00;0.00;;;;;;;22.35;76.59;101036.03;10490973;28;20098;-78
2022/07/25 18:36:44;;;;;;;0.05;0.05;;;;;;;22.06;78.42;101033.97;10491022;28;20455;-78
2022/07/25 18:41:45;;;;;;;1.27;0.63;;;;;;;22.05;79.86;101051.50;10488197;28;20045;-79
2022/07/25 18:46:47;;;;;;;0.00;0.00;;;;;;;21.75;81.07;101045.94;10462479;28;20036;-78
2022/07/25 18:51:49;;;;;;;0.30;0.30;;;;;;;21.62;80.46;101049.69;10476287;28;20496;-78
2022/07/25 18:56:51;;;;;;;0.00;0.00;;;;;;;21.20;82.32;101061.69;10476989;28;20045;-78
2022/07/25 19:01:53;;;;;;;0.00;0.00;;;;;;;21.13;81.20;101057.44;10482864;28;20049;-78
2022/07/25 19:06:57;;;;;;;0.25;0.25;;;;;;;21.07;81.63;101063.63;10483230;28;20554;-78
2022/07/25 19:11:59;;;;;;;0.00;0.00;;;;;;;21.13;79.64;101067.91;10486584;28;20097;-78
2022/07/25 19:17:02;;;;;;;0.00;0.00;;;;;;;21.19;81.45;101065.19;10490037;28;20071;-78
2022/07/25 19:22:04;;;;;;;0.00;0.00;;;;;;;21.00;82.29;101077.69;10500397;28;20047;-78
2022/07/25 19:27:06;;;;;;;0.00;0.00;;;;;;;21.06;83.10;101072.38;10489894;28;20438;-79
2022/07/25 19:32:08;;;;;;;0.75;0.00;;;;;;;20.96;85.10;101085.66;10480553;28;20459;-79
2022/07/25 19:37:10;;;;;;;0.00;0.00;;;;;;;20.77;86.16;101089.34;10493151;28;20435;-78
2022/07/25 19:42:12;;;;;;;0.00;0.00;;;;;;;20.90;87.54;101097.91;10493512;28;20388;-79
2022/07/25 19:47:14;;;;;;;0.00;0.00;;;;;;;20.84;88.58;101092.78;10494320;28;20044;-78
2022/07/25 19:52:16;;;;;;;0.00;0.00;;;;;;;20.56;91.70;101100.97;10492762;28;20049;-79
2022/07/25 19:57:18;;;;;;;0.00;0.00;;;;;;;20.80;90.69;101106.81;10489280;28;20518;-79
2022/07/25 20:02:19;;;;;;;0.10;0.10;;;;;;;20.52;95.40;101106.25;10471278;28;20043;-78
2022/07/25 20:07:23;;;;;;;0.03;0.03;;;;;;;20.43;97.46;101107.25;10477886;28;20124;-78
2022/07/25 20:12:25;;;;;;;0.32;0.22;;;;;;;20.38;100.00;101115.13;10458524;28;20532;-78
2022/07/25 20:17:27;;;;;;;1.08;0.80;;;;;;;20.33;100.00;101113.44;10465494;28;20099;-78
2022/07/25 20:22:30;;;;;;;1.02;0.57;;;;;;;20.24;100.00;101119.66;10481818;28;20048;-78
2022/07/25 20:27:32;;;;;;;0.45;0.45;;;;;;;20.25;100.00;101119.63;10476705;28;20040;-78
2022/07/25 20:32:34;;;;;;;0.00;0.00;;;;;;;20.22;100.00;101127.50;10470414;28;20037;-78
2022/07/25 20:37:36;;;;;;;0.08;0.08;;;;;;;20.15;100.00;101132.84;10488245;28;20052;-78
2022/07/25 20:42:37;;;;;;;0.28;0.15;;;;;;;20.08;100.00;101124.16;10486710;28;20036;-78
2022/07/25 20:47:39;;;;;;;0.00;0.00;;;;;;;20.12;100.00;101137.22;10478786;28;20052;-78
2022/07/25 20:52:40;;;;;;;1.98;0.35;;;;;;;20.10;100.00;101130.25;10515534;28;20047;-79
2022/07/25 20:57:42;;;;;;;7.10;1.55;;;;;;;20.20;100.00;101131.91;10496423;28;20045;-78
2022/07/25 21:02:50;;;;;;;0.00;0.00;;;;;;;20.09;100.00;101128.53;10497777;28;20140;-79
2022/07/25 21:07:52;;;;;;;0.73;0.10;;;;;;;20.22;100.00;101140.59;10536255;28;20044;-78
2022/07/25 21:13:06;;;;;;;0.05;0.05;;;;;;;20.21;100.00;101133.66;10537681;28;20061;-78
2022/07/25 21:18:08;;;;;;;5.47;1.27;;;;;;;20.13;100.00;101135.47;10537237;28;20074;-78
2022/07/25 21:23:09;;;;;;;1.27;0.45;;;;;;;20.24;100.00;101144.06;10484610;28;20049;-78
2022/07/25 21:28:11;;;;;;;0.93;0.28;;;;;;;20.02;100.00;101142.53;10492766;28;20499;-78
2022/07/25 21:33:13;;;;;;;0.30;0.10;;;;;;;20.03;100.00;101159.97;10494885;28;20059;-79
2022/07/25 21:38:15;;;;;;;0.40;0.20;;;;;;;20.09;100.00;101157.28;10491066;28;20123;-78
2022/07/25 21:43:28;;;;;;;0.00;0.00;;;;;;;19.86;100.00;101153.13;10493780;28;20037;-78
2022/07/25 21:53:51;;;;;;;1.15;0.98;;;;;;;19.69;100.00;101160.25;10526223;28;20036;-78
2022/07/25 21:58:53;;;;;;;1.15;0.73;;;;;;;19.50;100.00;101170.81;10498084;28;20040;-78
2022/07/25 22:03:54;;;;;;;0.40;0.20;;;;;;;19.45;100.00;101177.84;10501183;28;20040;-78
2022/07/25 22:09:00;;;;;;;0.68;0.65;;;;;;;19.50;100.00;101176.03;10487588;28;20396;-78
2022/07/25 22:14:02;;;;;;;0.00;0.00;;;;;;;19.46;100.00;101180.44;10484608;28;20056;-78
2022/07/25 22:19:03;;;;;;;0.10;0.03;;;;;;;19.27;100.00;101179.66;10535631;28;20051;-79
2022/07/25 22:24:07;;;;;;;0.10;0.10;;;;;;;19.11;100.00;101180.63;10531314;28;20431;-78
2022/07/25 22:29:08;;;;;;;6.40;0.45;;;;;;;19.16;100.00;101186.72;10508012;28;20044;-77
2022/07/25 22:34:15;;;;;;;0.15;0.15;;;;;;;18.98;100.00;101198.97;10525089;28;20040;-78
2022/07/25 22:39:16;;;;;;;0.80;0.08;;;;;;;18.80;100.00;101201.63;10529225;28;20056;-78
2022/07/25 22:44:18;;;;;;;0.00;0.00;;;;;;;18.73;100.00;101207.75;10492882;28;20491;-78
2022/07/25 22:49:22;;;;;;;0.35;0.20;;;;;;;18.58;100.00;101204.28;10492807;28;20048;-77
2022/07/25 22:54:23;;;;;;;0.00;0.00;;;;;;;18.64;100.00;101209.50;10490144;28;20037;-78
2022/07/25 22:59:25;;;;;;;1.17;0.15;;;;;;;18.49;100.00;101214.75;10489889;28;20454;-78
2022/07/25 23:04:27;;;;;;;0.10;0.10;;;;;;;18.43;100.00;101225.22;10511911;28;20036;-78
2022/07/25 23:09:28;;;;;;;0.25;0.17;;;;;;;18.37;100.00;101224.31;10497734;28;20051;-78
2022/07/25 23:14:37;;;;;;;0.00;0.00;;;;;;;18.29;100.00;101241.72;10529832;28;20048;-78